createdAt,value
2017-09-29T00:00:27.353Z,42.62
2017-09-29T00:03:01.876Z,44.03
2017-09-29T00:05:36.303Z,42.67
2017-09-29T00:08:10.744Z,40.20
2017-09-29T00:10:45.196Z,40.72
2017-09-29T00:13:19.930Z,42.08
2017-09-29T00:15:54.286Z,43.55
2017-09-29T00:18:28.813Z,42.38
2017-09-29T00:21:03.397Z,41.95
2017-09-29T00:23:38.632Z,43.20
2017-09-29T00:26:13.035Z,47.10
2017-09-29T00:28:47.475Z,45.67
2017-09-29T00:31:22.143Z,45.42
2017-09-29T00:33:56.636Z,45.20
2017-09-29T00:36:31.216Z,45.45
2017-09-29T00:39:05.713Z,43.75
2017-09-29T00:41:40.331Z,44.35
2017-09-29T00:44:14.843Z,44.53
2017-09-29T00:46:49.249Z,48.55
2017-09-29T00:49:23.600Z,46.47
2017-09-29T00:51:58.180Z,45.92
2017-09-29T00:54:32.561Z,47.70
2017-09-29T00:57:07.662Z,48.33
2017-09-29T00:59:42.186Z,47.47
2017-09-29T01:02:17.321Z,47.83
2017-09-29T01:04:51.743Z,48.40
2017-09-29T01:07:26.092Z,47.67
2017-09-29T01:10:00.486Z,48.15
2017-09-29T01:12:34.824Z,47.35
2017-09-29T01:15:09.296Z,50.00
2017-09-29T01:17:43.809Z,52.62
2017-09-29T01:20:18.407Z,49.17
2017-09-29T01:22:52.923Z,50.30
2017-09-29T01:25:27.411Z,46.88
2017-09-29T01:28:01.760Z,48.03
2017-09-29T01:30:37.032Z,46.05
2017-09-29T01:33:12.396Z,47.70
2017-09-29T01:35:47.591Z,47.62
2017-09-29T01:38:23.757Z,45.47
2017-09-29T01:40:58.625Z,46.40
2017-09-29T01:43:32.949Z,50.00
2017-09-29T01:46:07.340Z,47.75
2017-09-29T01:48:41.846Z,46.20
2017-09-29T01:51:16.416Z,48.58
2017-09-29T01:53:50.885Z,47.40
2017-09-29T01:56:25.309Z,45.15
2017-09-29T01:59:00.464Z,46.55
2017-09-29T02:01:34.892Z,48.25
2017-09-29T02:04:09.418Z,44.92
2017-09-29T02:06:44.050Z,45.30
2017-09-29T02:09:18.548Z,47.33
2017-09-29T02:11:52.982Z,44.55
2017-09-29T02:14:28.192Z,43.40
2017-09-29T02:17:02.792Z,42.92
2017-09-29T02:19:37.262Z,46.35
2017-09-29T02:22:11.636Z,42.95
2017-09-29T02:24:46.106Z,42.78
2017-09-29T02:27:20.592Z,42.35
2017-09-29T02:29:55.048Z,41.08
2017-09-29T02:32:30.292Z,43.50
2017-09-29T02:35:05.491Z,43.80
2017-09-29T02:37:39.979Z,43.15
2017-09-29T02:40:14.514Z,43.63
2017-09-29T02:42:48.887Z,44.05
2017-09-29T02:45:23.283Z,43.08
2017-09-29T02:47:58.650Z,39.42
2017-09-29T02:50:33.036Z,41.70
2017-09-29T02:53:07.502Z,41.60
2017-09-29T02:55:42.688Z,40.80
2017-09-29T02:58:21.535Z,42.35
2017-09-29T03:01:01.124Z,40.70
2017-09-29T03:03:41.863Z,41.83
2017-09-29T03:06:17.492Z,40.63
2017-09-29T03:08:51.928Z,41.90
2017-09-29T03:11:26.425Z,41.37
2017-09-29T03:14:00.970Z,41.30
2017-09-29T03:16:35.403Z,43.45
2017-09-29T03:19:09.823Z,44.60
2017-09-29T03:21:44.213Z,40.72
2017-09-29T03:24:18.688Z,41.55
2017-09-29T03:26:53.157Z,41.17
2017-09-29T03:29:27.548Z,41.97
2017-09-29T03:32:01.992Z,39.17
2017-09-29T03:34:36.432Z,38.90
2017-09-29T03:37:10.776Z,39.13
2017-09-29T03:39:46.185Z,38.22
2017-09-29T03:42:20.621Z,38.90
2017-09-29T03:44:55.003Z,38.28
2017-09-29T03:47:29.869Z,37.30
2017-09-29T03:50:10.523Z,39.85
2017-09-29T03:52:48.936Z,38.15
2017-09-29T03:55:32.429Z,40.33
2017-09-29T03:58:17.413Z,40.10
2017-09-29T04:00:52.247Z,42.38
2017-09-29T04:03:26.884Z,41.13
2017-09-29T04:06:01.204Z,41.75
2017-09-29T04:08:35.539Z,45.30
2017-09-29T04:11:10.731Z,43.65
2017-09-29T04:13:45.275Z,42.53
2017-09-29T04:16:19.771Z,41.55
2017-09-29T04:18:55.019Z,42.50
2017-09-29T04:21:29.425Z,43.85
2017-09-29T04:24:03.769Z,44.63
2017-09-29T04:26:38.232Z,46.35
2017-09-29T04:29:12.586Z,47.15
2017-09-29T04:31:47.377Z,44.72
2017-09-29T04:34:21.691Z,44.22
2017-09-29T04:36:56.183Z,45.40
2017-09-29T04:39:30.743Z,43.92
2017-09-29T04:42:05.144Z,46.17
2017-09-29T04:44:40.305Z,47.35
2017-09-29T04:47:14.625Z,45.63
2017-09-29T04:49:48.976Z,43.30
2017-09-29T04:52:23.600Z,43.35
2017-09-29T04:54:58.048Z,46.92
2017-09-29T04:57:32.539Z,48.35
2017-09-29T05:00:06.988Z,48.78
2017-09-29T05:02:41.471Z,47.20
2017-09-29T05:05:15.814Z,46.17
2017-09-29T05:07:50.924Z,47.70
2017-09-29T05:10:25.689Z,46.65
2017-09-29T05:13:00.024Z,46.78
2017-09-29T05:15:34.731Z,48.08
2017-09-29T05:18:09.186Z,46.58
2017-09-29T05:20:43.875Z,47.62
2017-09-29T05:23:18.361Z,48.85
2017-09-29T05:25:52.743Z,47.33
2017-09-29T05:28:27.223Z,52.03
2017-09-29T05:31:01.625Z,52.45
2017-09-29T05:33:36.769Z,50.58
2017-09-29T05:36:11.069Z,51.22
2017-09-29T05:38:45.587Z,50.90
2017-09-29T05:41:20.096Z,53.45
2017-09-29T05:43:54.573Z,52.20
2017-09-29T05:46:29.016Z,51.13
2017-09-29T05:49:03.559Z,50.38
2017-09-29T05:51:38.136Z,49.88
2017-09-29T05:54:12.817Z,47.95
2017-09-29T05:56:47.402Z,50.33
2017-09-29T05:59:21.779Z,48.67
2017-09-29T06:01:56.157Z,49.33
2017-09-29T06:04:30.630Z,50.83
2017-09-29T06:07:05.247Z,49.15
2017-09-29T06:09:39.706Z,48.08
2017-09-29T06:12:14.189Z,47.28
2017-09-29T06:14:48.827Z,47.28
2017-09-29T06:17:24.051Z,48.17
2017-09-29T06:19:58.526Z,49.45
2017-09-29T06:22:32.808Z,46.63
2017-09-29T06:25:07.133Z,43.35
2017-09-29T06:27:41.546Z,44.40
2017-09-29T06:30:16.049Z,42.10
2017-09-29T06:35:53.858Z,40.88
2017-09-29T06:38:29.093Z,40.85
2017-09-29T06:41:04.368Z,40.80
2017-09-29T06:43:39.564Z,40.25
2017-09-29T06:46:14.846Z,40.45
2017-09-29T06:48:49.330Z,40.30
2017-09-29T06:51:23.675Z,39.17
2017-09-29T06:53:58.888Z,42.65
2017-09-29T06:56:33.263Z,41.25
2017-09-29T06:59:07.605Z,42.30
2017-09-29T07:01:41.980Z,40.12
2017-09-29T07:04:16.456Z,40.95
2017-09-29T07:06:51.125Z,44.22
2017-09-29T07:09:26.225Z,40.42
2017-09-29T07:12:00.588Z,37.20
2017-09-29T07:14:34.918Z,38.30
2017-09-29T07:17:10.260Z,39.17
2017-09-29T07:19:44.712Z,37.63
2017-09-29T07:25:02.561Z,36.13
2017-09-29T07:27:40.527Z,38.08
2017-09-29T07:30:20.277Z,37.40
2017-09-29T07:32:56.859Z,38.80
2017-09-29T07:35:31.316Z,37.25
2017-09-29T07:38:05.764Z,37.80
2017-09-29T07:40:40.083Z,35.97
2017-09-29T07:43:14.456Z,35.63
2017-09-29T07:45:48.816Z,35.53
2017-09-29T07:48:23.550Z,39.75
2017-09-29T07:50:57.880Z,36.20
2017-09-29T07:53:32.205Z,36.65
2017-09-29T07:56:06.725Z,38.45
2017-09-29T07:58:41.139Z,36.58
2017-09-29T08:01:15.480Z,37.35
2017-09-29T08:03:50.006Z,35.90
2017-09-29T08:06:24.396Z,34.70
2017-09-29T08:08:59.004Z,38.78
2017-09-29T08:11:33.412Z,36.95
2017-09-29T08:14:08.312Z,35.92
2017-09-29T08:16:42.686Z,35.88
2017-09-29T08:19:17.193Z,35.20
2017-09-29T08:21:51.667Z,36.60
2017-09-29T08:24:26.260Z,37.72
2017-09-29T08:27:00.809Z,35.40
2017-09-29T08:29:35.371Z,35.47
2017-09-29T08:32:09.939Z,35.13
2017-09-29T08:34:44.396Z,34.25
2017-09-29T08:37:18.976Z,36.55
2017-09-29T08:39:53.321Z,35.42
2017-09-29T08:42:28.171Z,36.90
2017-09-29T08:45:02.694Z,35.63
2017-09-29T08:47:37.322Z,36.50
2017-09-29T08:50:12.059Z,35.08
2017-09-29T08:52:46.583Z,34.70
2017-09-29T08:55:21.011Z,31.27
2017-09-29T08:57:55.533Z,33.88
2017-09-29T09:00:29.864Z,32.50
2017-09-29T09:03:04.386Z,35.28
2017-09-29T09:05:38.918Z,34.10
2017-09-29T09:08:13.389Z,34.63
2017-09-29T09:10:47.880Z,33.95
2017-09-29T09:13:22.393Z,33.15
2017-09-29T09:15:56.797Z,31.65
2017-09-29T09:18:31.212Z,34.53
2017-09-29T09:21:05.580Z,32.92
2017-09-29T09:23:40.403Z,33.20
2017-09-29T09:26:14.907Z,33.53
2017-09-29T09:28:49.501Z,35.42
2017-09-29T09:31:23.973Z,35.47
2017-09-29T09:33:58.496Z,35.60
2017-09-29T09:36:32.937Z,32.10
2017-09-29T09:39:07.501Z,35.23
2017-09-29T09:41:41.828Z,32.00
2017-09-29T09:44:16.180Z,31.50
2017-09-29T09:46:50.659Z,32.97
2017-09-29T09:49:24.999Z,32.47
2017-09-29T09:51:59.490Z,32.47
2017-09-29T09:54:33.840Z,34.23
2017-09-29T09:57:08.328Z,32.47
2017-09-29T09:59:42.782Z,29.87
2017-09-29T10:02:17.125Z,28.23
2017-09-29T10:04:51.513Z,29.03
2017-09-29T10:07:26.679Z,29.93
2017-09-29T10:10:01.887Z,26.60
2017-09-29T10:12:36.206Z,28.30
2017-09-29T10:15:10.608Z,28.70
2017-09-29T10:17:44.951Z,27.23
2017-09-29T10:20:19.368Z,26.10
2017-09-29T10:22:53.708Z,27.03
2017-09-29T10:25:43.859Z,27.73
2017-09-29T10:28:18.413Z,29.70
2017-09-29T10:30:52.910Z,28.70
2017-09-29T10:33:27.356Z,27.93
2017-09-29T10:36:01.832Z,28.97
2017-09-29T10:38:36.321Z,30.63
2017-09-29T10:41:10.824Z,30.83
2017-09-29T10:43:45.912Z,31.00
2017-09-29T10:46:21.148Z,30.67
2017-09-29T10:48:56.328Z,30.40
2017-09-29T10:51:30.841Z,29.50
2017-09-29T10:54:05.382Z,30.70
2017-09-29T10:56:39.917Z,30.60
2017-09-29T10:59:14.509Z,30.87
2017-09-29T11:01:49.024Z,30.00
2017-09-29T11:04:23.500Z,30.67
2017-09-29T11:06:58.798Z,30.30
2017-09-29T11:09:34.020Z,32.47
2017-09-29T11:12:08.456Z,30.40
2017-09-29T11:14:42.894Z,30.43
2017-09-29T11:17:17.218Z,28.30
2017-09-29T11:19:51.685Z,30.83
2017-09-29T11:22:26.146Z,31.00
2017-09-29T11:25:00.616Z,32.53
2017-09-29T11:27:35.291Z,30.37
2017-09-29T11:30:09.740Z,31.37
2017-09-29T11:32:44.976Z,29.27
2017-09-29T11:35:19.532Z,31.07
2017-09-29T11:37:54.691Z,31.20
2017-09-29T11:40:29.211Z,31.57
2017-09-29T11:43:03.653Z,30.37
2017-09-29T11:45:38.165Z,31.37
2017-09-29T11:48:12.629Z,29.53
2017-09-29T11:50:47.896Z,31.47
2017-09-29T11:53:22.483Z,31.53
2017-09-29T11:55:56.996Z,32.83
2017-09-29T11:58:31.364Z,30.43
2017-09-29T12:01:06.508Z,30.50
2017-09-29T12:03:40.931Z,30.00
2017-09-29T12:06:15.420Z,29.90
2017-09-29T12:08:49.877Z,29.77
2017-09-29T12:11:24.224Z,31.73
2017-09-29T12:13:59.639Z,29.40
2017-09-29T12:16:34.132Z,28.87
2017-09-29T12:19:08.466Z,28.13
2017-09-29T12:21:43.712Z,32.87
2017-09-29T12:24:18.192Z,34.10
2017-09-29T12:26:52.722Z,33.00
2017-09-29T12:29:27.120Z,33.20
2017-09-29T12:32:01.687Z,33.10
2017-09-29T12:34:36.976Z,33.20
2017-09-29T12:37:12.247Z,30.57
2017-09-29T12:39:46.664Z,31.20
2017-09-29T12:42:21.167Z,31.87
2017-09-29T12:44:55.791Z,32.77
2017-09-29T12:47:30.278Z,32.90
2017-09-29T12:50:04.755Z,35.27
2017-09-29T12:52:40.114Z,33.07
2017-09-29T12:55:14.537Z,31.10
2017-09-29T12:57:49.085Z,33.33
2017-09-29T13:00:23.556Z,33.33
2017-09-29T13:02:58.175Z,35.10
2017-09-29T13:05:32.515Z,32.50
2017-09-29T13:08:06.870Z,33.13
2017-09-29T13:10:41.420Z,33.97
2017-09-29T13:13:15.843Z,32.20
2017-09-29T13:15:50.287Z,31.33
2017-09-29T13:18:24.608Z,34.90
2017-09-29T13:20:59.826Z,31.77
2017-09-29T13:23:34.432Z,31.90
2017-09-29T13:26:08.871Z,31.20
2017-09-29T13:28:43.439Z,32.47
2017-09-29T13:31:18.524Z,30.87
2017-09-29T13:33:53.139Z,29.10
2017-09-29T13:36:27.615Z,30.33
2017-09-29T13:39:02.232Z,30.10
2017-09-29T13:41:36.607Z,28.67
2017-09-29T13:44:11.140Z,29.17
2017-09-29T13:46:45.532Z,29.30
2017-09-29T13:49:20.123Z,29.40
2017-09-29T13:51:54.523Z,29.03
2017-09-29T13:54:28.979Z,30.07
2017-09-29T13:57:04.172Z,29.83
2017-09-29T13:59:38.736Z,27.87
2017-09-29T14:02:13.344Z,28.67
2017-09-29T14:04:47.834Z,27.93
2017-09-29T14:07:22.259Z,28.30
2017-09-29T14:09:56.662Z,27.97
2017-09-29T14:12:31.041Z,27.87
2017-09-29T14:15:06.227Z,28.57
2017-09-29T14:17:40.711Z,28.13
2017-09-29T14:20:15.183Z,28.13
2017-09-29T14:22:49.538Z,28.93
2017-09-29T14:25:24.103Z,27.97
2017-09-29T14:27:58.596Z,27.93
2017-09-29T14:30:33.086Z,27.47
2017-09-29T14:33:07.576Z,26.10
2017-09-29T14:35:42.010Z,28.30
2017-09-29T14:38:16.679Z,28.27
2017-09-29T14:40:51.086Z,27.43
2017-09-29T14:43:25.610Z,30.03
2017-09-29T14:46:00.141Z,27.80
2017-09-29T14:48:34.639Z,26.90
2017-09-29T14:51:09.168Z,29.20
2017-09-29T14:53:43.599Z,28.00
2017-09-29T14:56:18.047Z,26.20
2017-09-29T14:58:52.502Z,28.80
2017-09-29T15:01:26.972Z,28.07
2017-09-29T15:04:01.484Z,29.57
2017-09-29T15:06:36.772Z,28.40
2017-09-29T15:09:11.414Z,28.13
2017-09-29T15:11:45.920Z,28.70
2017-09-29T15:14:20.263Z,28.17
2017-09-29T15:16:54.777Z,29.60
2017-09-29T15:19:29.115Z,29.53
2017-09-29T15:22:03.639Z,29.20
2017-09-29T15:24:38.271Z,30.30
2017-09-29T15:27:12.821Z,30.03
2017-09-29T15:29:47.165Z,28.87
2017-09-29T15:32:22.662Z,28.47
2017-09-29T15:34:57.274Z,29.13
2017-09-29T15:37:31.748Z,28.20
2017-09-29T15:40:06.297Z,29.33
2017-09-29T15:42:40.960Z,31.03
2017-09-29T15:45:16.211Z,29.13
2017-09-29T15:47:51.108Z,28.47
2017-09-29T15:50:25.628Z,29.80
2017-09-29T15:53:00.018Z,30.10
2017-09-29T15:55:34.469Z,31.30
2017-09-29T15:58:08.875Z,30.67
2017-09-29T16:00:43.414Z,31.53
2017-09-29T16:03:17.770Z,31.37
2017-09-29T16:05:52.482Z,29.43
2017-09-29T16:08:28.254Z,31.00
2017-09-29T16:11:02.615Z,31.90
2017-09-29T16:13:39.699Z,29.97
2017-09-29T16:16:15.011Z,33.93
2017-09-29T16:18:49.478Z,32.40
2017-09-29T16:21:23.985Z,32.50
2017-09-29T16:23:58.537Z,32.33
2017-09-29T16:26:33.052Z,34.23
2017-09-29T16:29:07.407Z,34.27
2017-09-29T16:31:44.595Z,31.97
2017-09-29T16:34:19.172Z,33.20
2017-09-29T16:36:53.883Z,34.55
2017-09-29T16:39:28.863Z,33.33
2017-09-29T16:42:03.330Z,33.80
2017-09-29T16:44:38.074Z,36.47
2017-09-29T16:47:14.417Z,35.22
2017-09-29T16:49:49.337Z,35.00
2017-09-29T16:52:23.767Z,33.70
2017-09-29T16:54:58.221Z,33.58
2017-09-29T16:57:32.528Z,34.67
2017-09-29T17:00:06.841Z,34.13
2017-09-29T17:02:41.277Z,32.25
2017-09-29T17:05:15.735Z,32.75
2017-09-29T17:07:50.168Z,32.45
2017-09-29T17:10:24.513Z,31.40
2017-09-29T17:12:58.947Z,32.55
2017-09-29T17:15:34.053Z,33.15
2017-09-29T17:18:08.564Z,34.70
2017-09-29T17:20:43.308Z,33.15
2017-09-29T17:23:19.372Z,33.60
2017-09-29T17:25:53.923Z,32.63
2017-09-29T17:28:28.486Z,35.20
2017-09-29T17:31:03.121Z,38.77
2017-09-29T17:33:37.592Z,33.70
2017-09-29T17:36:12.103Z,35.83
2017-09-29T17:38:46.527Z,40.30
2017-09-29T17:41:21.229Z,40.63
2017-09-29T17:43:55.585Z,38.53
2017-09-29T17:46:30.509Z,37.42
2017-09-29T17:49:05.283Z,35.25
2017-09-29T17:51:39.823Z,35.75
2017-09-29T17:54:14.339Z,35.88
2017-09-29T17:56:48.817Z,37.75
2017-09-29T17:59:23.181Z,35.67
2017-09-29T18:01:57.605Z,35.00
2017-09-29T18:04:32.275Z,35.28
2017-09-29T18:07:06.657Z,35.15
2017-09-29T18:09:41.244Z,38.53
2017-09-29T18:12:15.661Z,36.13
2017-09-29T18:14:50.184Z,37.50
2017-09-29T18:17:25.337Z,36.97
2017-09-29T18:19:59.828Z,34.25
2017-09-29T18:22:35.142Z,36.65
2017-09-29T18:25:09.913Z,34.88
2017-09-29T18:27:44.572Z,34.75
2017-09-29T18:30:19.333Z,35.17
2017-09-29T18:32:54.085Z,35.70
2017-09-29T18:35:29.123Z,33.30
2017-09-29T18:38:05.012Z,32.15
2017-09-29T18:40:43.584Z,34.22
2017-09-29T18:43:21.114Z,32.05
2017-09-29T18:45:56.169Z,30.12
2017-09-29T18:48:30.985Z,29.12
2017-09-29T18:51:05.882Z,28.90
2017-09-29T18:53:41.428Z,30.60
2017-09-29T18:56:16.652Z,30.15
2017-09-29T18:58:54.424Z,28.52
2017-09-29T19:01:37.585Z,28.67
2017-09-29T19:04:13.006Z,26.80
2017-09-29T19:06:49.158Z,29.40
2017-09-29T19:09:23.943Z,26.27
2017-09-29T19:11:59.773Z,27.13
2017-09-29T19:14:35.093Z,28.40
2017-09-29T19:17:09.865Z,28.23
2017-09-29T19:19:45.105Z,26.60
2017-09-29T19:22:21.947Z,26.65
2017-09-29T19:24:56.809Z,25.30
2017-09-29T19:27:34.110Z,25.60
2017-09-29T19:30:15.662Z,24.10
2017-09-29T19:35:45.925Z,25.08
2017-09-29T19:38:24.457Z,25.02
2017-09-29T19:41:00.818Z,24.80
2017-09-29T19:43:35.625Z,24.55
2017-09-29T19:46:12.245Z,25.25
2017-09-29T19:48:48.909Z,24.45
2017-09-29T19:51:25.675Z,24.98
2017-09-29T19:54:02.314Z,24.15
2017-09-29T19:56:38.978Z,25.62
2017-09-29T19:59:14.180Z,26.12
2017-09-29T20:01:50.399Z,25.23
2017-09-29T20:04:26.388Z,25.33
2017-09-29T20:07:03.648Z,22.58
2017-09-29T20:09:41.131Z,23.05
2017-09-29T20:12:17.356Z,23.20
2017-09-29T20:14:53.336Z,24.87
2017-09-29T20:17:28.924Z,23.55
2017-09-29T20:20:05.093Z,23.92
2017-09-29T20:22:41.797Z,22.92
2017-09-29T20:25:18.043Z,23.40
2017-09-29T20:27:53.683Z,23.12
2017-09-29T20:30:30.509Z,22.62
2017-09-29T20:33:09.668Z,22.95
2017-09-29T20:35:44.192Z,24.08
2017-09-29T20:38:19.482Z,23.70
2017-09-29T20:40:54.024Z,22.83
2017-09-29T20:43:28.621Z,22.20
2017-09-29T20:46:03.843Z,23.33
2017-09-29T20:48:39.038Z,21.87
2017-09-29T20:51:14.860Z,23.40
2017-09-29T20:53:49.387Z,22.95
2017-09-29T20:56:23.923Z,23.40
2017-09-29T20:58:58.485Z,24.35
2017-09-29T21:01:33.194Z,23.80
2017-09-29T21:04:07.697Z,23.40
2017-09-29T21:06:42.648Z,23.80
2017-09-29T21:09:17.205Z,22.73
2017-09-29T21:11:52.030Z,21.52
2017-09-29T21:14:26.540Z,22.90
2017-09-29T21:17:01.798Z,22.08
2017-09-29T21:19:37.951Z,24.05
2017-09-29T21:22:12.613Z,23.20
2017-09-29T21:24:47.001Z,22.30
2017-09-29T21:27:21.352Z,22.50
2017-09-29T21:29:55.832Z,23.52
2017-09-29T21:32:31.283Z,23.33
2017-09-29T21:35:06.492Z,23.40
2017-09-29T21:37:41.006Z,22.23
2017-09-29T21:40:15.425Z,24.55
2017-09-29T21:42:50.016Z,22.85
2017-09-29T21:45:24.367Z,24.30
2017-09-29T21:47:59.571Z,24.40
2017-09-29T21:50:34.067Z,23.42
2017-09-29T21:53:09.008Z,25.70
2017-09-29T21:55:44.432Z,25.08
2017-09-29T21:58:18.989Z,24.05
2017-09-29T22:00:53.619Z,23.60
2017-09-29T22:03:28.273Z,23.92
2017-09-29T22:06:03.647Z,24.08
2017-09-29T22:08:38.820Z,24.95
2017-09-29T22:11:13.224Z,23.85
2017-09-29T22:13:47.728Z,22.98
2017-09-29T22:16:22.152Z,24.08
2017-09-29T22:18:56.694Z,22.30
2017-09-29T22:21:31.284Z,22.90
2017-09-29T22:24:05.930Z,24.73
2017-09-29T22:26:40.309Z,24.15
2017-09-29T22:29:14.970Z,24.25
2017-09-29T22:31:49.460Z,23.67
2017-09-29T22:34:23.832Z,23.75
2017-09-29T22:36:59.270Z,25.75
2017-09-29T22:39:33.793Z,23.08
2017-09-29T22:42:08.399Z,23.25
2017-09-29T22:44:42.841Z,25.83
2017-09-29T22:47:17.311Z,26.20
2017-09-29T22:49:51.822Z,24.20
2017-09-29T22:52:26.823Z,24.98
2017-09-29T22:55:03.295Z,25.90
2017-09-29T22:57:38.008Z,26.62
2017-09-29T23:00:12.518Z,24.92
2017-09-29T23:02:47.003Z,26.90
2017-09-29T23:05:21.543Z,25.35
2017-09-29T23:07:56.133Z,25.98
2017-09-29T23:10:30.621Z,25.15
2017-09-29T23:13:06.183Z,25.20
2017-09-29T23:15:40.581Z,23.33
2017-09-29T23:18:15.836Z,24.95
2017-09-29T23:20:50.195Z,25.52
2017-09-29T23:23:24.717Z,24.23
2017-09-29T23:25:59.545Z,24.48
2017-09-29T23:28:34.123Z,25.55
2017-09-29T23:31:08.581Z,26.75
2017-09-29T23:33:42.972Z,25.58
2017-09-29T23:36:18.038Z,25.95
2017-09-29T23:38:52.504Z,25.62
2017-09-29T23:41:26.851Z,26.35
2017-09-29T23:44:01.529Z,25.45
2017-09-29T23:46:36.063Z,25.58
2017-09-29T23:49:11.490Z,28.25
2017-09-29T23:51:45.859Z,26.30
2017-09-29T23:54:20.283Z,25.90
2017-09-29T23:56:54.611Z,27.77
2017-09-29T23:59:29.177Z,25.17
